createdAt,value
2022-11-23T00:01:20.078Z,1.10
2022-11-23T00:04:22.492Z,1.70
2022-11-23T00:07:24.788Z,1.20
2022-11-23T00:10:26.801Z,1.30
2022-11-23T00:13:29.238Z,1.10
2022-11-23T00:16:31.378Z,1.23
2022-11-23T00:19:33.550Z,1.48
2022-11-23T00:22:35.897Z,1.15
2022-11-23T00:25:38.491Z,1.35
2022-11-23T00:28:40.507Z,1.35
2022-11-23T00:31:43.996Z,1.05
2022-11-23T00:34:46.016Z,1.10
2022-11-23T00:37:48.312Z,1.40
2022-11-23T00:40:50.265Z,1.30
2022-11-23T00:43:52.854Z,0.98
2022-11-23T00:46:54.802Z,1.20
2022-11-23T00:49:56.864Z,1.20
2022-11-23T00:52:58.826Z,1.42
2022-11-23T00:56:00.841Z,1.13
2022-11-23T00:59:04.048Z,1.23
2022-11-23T01:02:07.486Z,1.45
2022-11-23T01:05:09.621Z,1.30
2022-11-23T01:08:11.785Z,1.10
2022-11-23T01:11:13.805Z,1.40
2022-11-23T01:14:16.032Z,1.00
2022-11-23T01:17:18.134Z,0.93
2022-11-23T01:20:20.205Z,1.30
2022-11-23T01:23:22.289Z,1.02
2022-11-23T01:26:24.723Z,1.33
2022-11-23T01:29:33.929Z,1.33
2022-11-23T01:32:36.741Z,0.90
2022-11-23T01:35:38.699Z,1.15
2022-11-23T01:38:42.334Z,1.00
2022-11-23T01:41:45.737Z,1.20
2022-11-23T01:44:48.669Z,0.80
2022-11-23T01:47:50.834Z,1.02
2022-11-23T01:50:54.120Z,1.25
2022-11-23T01:54:00.889Z,0.90
2022-11-23T01:57:11.025Z,1.00
2022-11-23T02:00:13.593Z,1.00
2022-11-23T02:03:15.734Z,0.65
2022-11-23T02:06:20.061Z,0.70
2022-11-23T02:09:23.178Z,1.10
2022-11-23T02:12:26.311Z,1.27
2022-11-23T02:15:28.526Z,1.40
2022-11-23T02:18:33.105Z,1.10
2022-11-23T02:21:35.292Z,0.80
2022-11-23T02:24:49.959Z,1.13
2022-11-23T02:27:53.711Z,1.67
2022-11-23T02:30:56.336Z,1.17
2022-11-23T02:33:59.131Z,1.40
2022-11-23T02:37:04.071Z,0.90
2022-11-23T02:40:20.939Z,1.10
2022-11-23T02:43:23.471Z,1.77
2022-11-23T02:46:27.818Z,1.15
2022-11-23T02:49:29.991Z,1.17
2022-11-23T02:52:32.335Z,1.15
2022-11-23T02:55:34.471Z,0.90
2022-11-23T02:58:37.054Z,1.20
2022-11-23T03:01:42.032Z,1.40
2022-11-23T03:04:44.167Z,1.15
2022-11-23T03:07:46.735Z,1.17
2022-11-23T03:10:48.749Z,0.80
2022-11-23T03:13:51.022Z,1.00
2022-11-23T03:16:55.471Z,0.95
2022-11-23T03:19:58.909Z,1.42
2022-11-23T03:23:01.624Z,0.70
2022-11-23T03:26:07.334Z,0.82
2022-11-23T03:29:18.986Z,0.80
2022-11-23T03:32:22.059Z,0.80
2022-11-23T03:35:28.335Z,1.10
2022-11-23T03:38:51.452Z,0.93
2022-11-23T03:42:13.550Z,1.30
2022-11-23T03:45:15.654Z,1.33
2022-11-23T03:48:17.848Z,1.20
2022-11-23T03:51:21.933Z,0.75
2022-11-23T03:54:24.330Z,1.00
2022-11-23T03:57:26.451Z,1.25
2022-11-23T04:03:34.246Z,0.80
2022-11-23T04:06:42.291Z,1.13
2022-11-23T04:09:51.706Z,0.70
2022-11-23T04:13:16.781Z,0.73
2022-11-23T04:16:19.030Z,1.00
2022-11-23T04:19:21.196Z,1.67
2022-11-23T04:22:23.249Z,0.82
2022-11-23T04:25:25.352Z,1.42
2022-11-23T04:28:27.630Z,0.93
2022-11-23T04:31:29.775Z,0.80
2022-11-23T04:37:48.919Z,1.10
2022-11-23T04:44:18.855Z,0.95
2022-11-23T04:47:21.475Z,1.20
2022-11-23T04:50:24.813Z,0.95
2022-11-23T04:53:31.707Z,0.90
2022-11-23T04:56:35.154Z,1.17
2022-11-23T04:59:37.192Z,1.27
2022-11-23T05:02:40.791Z,0.88
2022-11-23T05:05:54.288Z,1.50
2022-11-23T05:08:56.634Z,1.33
2022-11-23T05:12:18.540Z,1.27
2022-11-23T05:15:22.280Z,1.27
2022-11-23T05:18:24.577Z,1.13
2022-11-23T05:21:26.874Z,0.90
2022-11-23T05:24:30.521Z,0.85
2022-11-23T05:27:42.014Z,1.10
2022-11-23T05:30:44.923Z,1.30
2022-11-23T05:33:47.434Z,1.20
2022-11-23T05:36:53.519Z,1.17
2022-11-23T05:39:55.525Z,1.00
2022-11-23T05:43:00.010Z,1.55
2022-11-23T05:46:02.821Z,1.42
2022-11-23T05:49:10.387Z,1.70
2022-11-23T05:52:14.281Z,1.20
2022-11-23T05:55:16.433Z,1.33
2022-11-23T05:58:19.155Z,1.23
2022-11-23T06:01:22.270Z,1.20
2022-11-23T06:04:25.706Z,1.27
2022-11-23T06:07:28.145Z,1.30
2022-11-23T06:10:48.932Z,1.10
2022-11-23T06:13:51.176Z,1.42
2022-11-23T06:16:53.473Z,2.25
2022-11-23T06:20:08.854Z,1.67
2022-11-23T06:23:15.722Z,2.30
2022-11-23T06:26:20.371Z,3.83
2022-11-23T06:29:23.754Z,2.45
2022-11-23T06:32:28.030Z,1.80
2022-11-23T06:35:32.189Z,1.40
2022-11-23T06:38:35.376Z,1.63
2022-11-23T06:41:42.763Z,1.50
2022-11-23T06:44:47.332Z,1.40
2022-11-23T06:50:52.997Z,1.45
2022-11-23T06:53:57.324Z,1.50
2022-11-23T06:57:00.644Z,1.20
2022-11-23T07:00:03.420Z,1.30
2022-11-23T07:03:20.353Z,1.25
2022-11-23T07:06:24.850Z,1.38
2022-11-23T07:09:30.119Z,1.27
2022-11-23T07:12:53.910Z,1.27
2022-11-23T07:15:58.642Z,1.52
2022-11-23T07:19:02.184Z,1.20
2022-11-23T07:22:04.351Z,1.35
2022-11-23T07:25:07.096Z,1.63
2022-11-23T07:28:11.838Z,1.50
2022-11-23T07:31:13.864Z,1.48
2022-11-23T07:34:15.732Z,1.35
2022-11-23T07:37:18.770Z,1.60
2022-11-23T07:40:20.781Z,1.63
2022-11-23T07:43:22.710Z,1.92
2022-11-23T07:46:25.336Z,1.48
2022-11-23T07:49:27.229Z,1.45
2022-11-23T07:52:29.217Z,1.80
2022-11-23T07:55:31.575Z,1.40
2022-11-23T07:58:33.533Z,1.50
2022-11-23T08:01:35.459Z,1.30
2022-11-23T08:04:37.305Z,1.55
2022-11-23T08:07:39.423Z,1.42
2022-11-23T08:10:46.105Z,1.30
2022-11-23T08:13:50.458Z,1.50
2022-11-23T08:16:52.565Z,1.85
2022-11-23T08:19:57.555Z,1.50
2022-11-23T08:22:59.615Z,2.22
2022-11-23T08:26:06.697Z,2.33
2022-11-23T08:29:12.327Z,1.80
2022-11-23T08:32:14.366Z,4.10
2022-11-23T08:35:16.373Z,5.45
2022-11-23T08:38:18.411Z,6.50
2022-11-23T08:41:20.988Z,9.63
2022-11-23T08:44:22.929Z,5.47
2022-11-23T08:47:24.796Z,5.60
2022-11-23T08:50:26.946Z,4.40
2022-11-23T08:53:28.811Z,3.42
2022-11-23T08:56:30.702Z,2.33
2022-11-23T08:59:32.590Z,2.05
2022-11-23T09:02:34.609Z,3.20
2022-11-23T09:05:39.740Z,4.38
2022-11-23T09:08:41.666Z,3.75
2022-11-23T09:11:43.508Z,2.80
2022-11-23T09:14:48.034Z,3.40
2022-11-23T09:17:49.956Z,2.50
2022-11-23T09:20:52.027Z,2.08
2022-11-23T09:23:53.927Z,2.38
2022-11-23T09:26:56.643Z,2.55
2022-11-23T09:29:58.757Z,3.00
2022-11-23T09:33:00.703Z,2.70
2022-11-23T09:36:04.289Z,2.08
2022-11-23T09:39:06.178Z,2.33
2022-11-23T09:42:24.573Z,2.53
2022-11-23T09:45:49.541Z,2.20
2022-11-23T09:48:57.547Z,1.65
2022-11-23T09:51:59.600Z,1.80
2022-11-23T09:55:07.307Z,1.75
2022-11-23T09:58:15.245Z,1.88
2022-11-23T10:01:17.337Z,2.08
2022-11-23T10:04:20.635Z,1.73
2022-11-23T10:07:22.715Z,1.20
2022-11-23T10:10:44.577Z,1.48
2022-11-23T10:14:01.837Z,1.60
2022-11-23T10:17:12.046Z,1.40
2022-11-23T10:20:19.974Z,1.30
2022-11-23T10:23:44.556Z,1.60
2022-11-23T10:26:49.582Z,1.20
2022-11-23T10:29:51.805Z,1.50
2022-11-23T10:33:09.379Z,1.40
2022-11-23T10:36:11.783Z,0.95
2022-11-23T10:39:22.475Z,1.13
2022-11-23T10:42:47.246Z,0.93
2022-11-23T10:45:49.239Z,1.48
2022-11-23T10:48:54.248Z,1.30
2022-11-23T10:52:05.333Z,0.82
2022-11-23T10:55:07.397Z,1.00
2022-11-23T10:58:26.728Z,1.30
2022-11-23T11:01:29.239Z,0.95
2022-11-23T11:04:31.639Z,0.80
2022-11-23T11:07:37.146Z,1.10
2022-11-23T11:10:44.262Z,1.33
2022-11-23T11:13:47.789Z,1.60
2022-11-23T11:16:58.486Z,0.70
2022-11-23T11:20:32.881Z,1.50
2022-11-23T11:23:38.696Z,1.00
2022-11-23T11:26:49.866Z,0.90
2022-11-23T11:29:54.576Z,1.35
2022-11-23T11:33:19.992Z,1.00
2022-11-23T11:36:24.155Z,0.98
2022-11-23T11:39:35.785Z,0.90
2022-11-23T11:42:44.012Z,1.17
2022-11-23T11:46:21.264Z,0.80
2022-11-23T11:49:35.269Z,1.02
2022-11-23T12:03:47.899Z,0.93
2022-11-23T12:07:14.393Z,0.90
2022-11-23T12:10:23.670Z,1.02
2022-11-23T12:13:34.748Z,1.02
2022-11-23T12:17:17.378Z,0.88
2022-11-23T12:20:30.992Z,1.08
2022-11-23T12:24:06.976Z,1.10
2022-11-23T12:27:42.116Z,1.17
2022-11-23T12:31:25.166Z,0.88
2022-11-23T12:34:42.056Z,1.58
2022-11-23T12:38:02.604Z,1.45
2022-11-23T12:44:34.200Z,1.40
2022-11-23T12:48:16.862Z,1.10
2022-11-23T12:51:23.951Z,1.20
2022-11-23T12:54:56.189Z,1.33
2022-11-23T12:58:17.195Z,1.02
2022-11-23T13:01:31.105Z,1.10
2022-11-23T13:04:54.668Z,1.20
2022-11-23T13:08:21.974Z,0.70
2022-11-23T13:11:35.863Z,0.75
2022-11-23T13:14:48.699Z,0.82
2022-11-23T13:18:12.010Z,1.08
2022-11-23T13:21:23.420Z,0.68
2022-11-23T13:24:34.232Z,1.30
2022-11-23T13:28:16.610Z,1.75
2022-11-23T13:31:21.786Z,0.85
2022-11-23T13:34:43.690Z,1.13
2022-11-23T13:37:57.479Z,0.93
2022-11-23T13:41:00.308Z,1.17
2022-11-23T13:47:20.541Z,1.05
2022-11-23T13:50:26.447Z,0.80
2022-11-23T13:53:35.707Z,1.83
2022-11-23T13:56:41.213Z,1.00
2022-11-23T13:59:43.160Z,1.42
2022-11-23T14:02:45.127Z,0.95
2022-11-23T14:05:50.082Z,1.67
2022-11-23T14:09:14.590Z,1.00
2022-11-23T14:12:19.487Z,0.50
2022-11-23T14:15:30.956Z,0.82
2022-11-23T14:18:38.788Z,0.40
2022-11-23T14:22:12.731Z,0.57
2022-11-23T14:25:45.330Z,0.60
2022-11-23T14:28:59.373Z,0.60
2022-11-23T14:32:34.944Z,0.40
2022-11-23T14:35:52.280Z,0.75
2022-11-23T14:39:34.590Z,0.70
2022-11-23T14:42:43.833Z,0.63
2022-11-23T14:45:47.560Z,0.70
2022-11-23T14:48:49.988Z,1.13
2022-11-23T14:51:52.159Z,0.75
2022-11-23T14:54:56.457Z,0.65
2022-11-23T14:58:02.663Z,0.80
2022-11-23T15:01:19.457Z,0.77
2022-11-23T15:04:33.494Z,0.57
2022-11-23T15:07:47.115Z,0.60
2022-11-23T15:11:03.371Z,0.70
2022-11-23T15:14:18.848Z,1.00
2022-11-23T15:17:22.175Z,1.00
2022-11-23T15:20:29.609Z,0.90
2022-11-23T15:23:38.493Z,1.05
2022-11-23T15:26:48.670Z,0.98
2022-11-23T15:29:59.624Z,1.25
2022-11-23T15:33:03.435Z,0.60
2022-11-23T15:36:07.785Z,1.00
2022-11-23T15:39:21.345Z,1.05
2022-11-23T15:42:25.803Z,1.15
2022-11-23T15:45:46.056Z,1.30
2022-11-23T15:48:49.755Z,0.90
2022-11-23T15:51:52.241Z,1.55
2022-11-23T15:54:56.354Z,1.20
2022-11-23T15:57:59.814Z,1.30
2022-11-23T16:01:27.828Z,1.30
2022-11-23T16:04:36.401Z,1.20
2022-11-23T16:08:01.130Z,1.10
2022-11-23T16:11:03.532Z,0.98
2022-11-23T16:14:16.312Z,1.27
2022-11-23T16:17:21.890Z,1.55
2022-11-23T16:20:25.609Z,1.77
2022-11-23T16:23:56.041Z,2.83
2022-11-23T16:26:58.052Z,2.30
2022-11-23T16:30:03.365Z,2.50
2022-11-23T16:33:06.440Z,2.53
2022-11-23T16:36:08.551Z,2.50
2022-11-23T16:39:10.517Z,1.90
2022-11-23T16:42:16.833Z,1.88
2022-11-23T16:45:18.804Z,1.60
2022-11-23T16:48:26.504Z,1.67
2022-11-23T16:51:28.493Z,1.40
2022-11-23T16:54:30.400Z,1.67
2022-11-23T16:57:35.250Z,2.17
2022-11-23T17:00:37.241Z,2.40
2022-11-23T17:03:39.292Z,1.92
2022-11-23T17:06:41.169Z,1.92
2022-11-23T17:09:43.126Z,1.65
2022-11-23T17:12:54.012Z,1.52
2022-11-23T17:15:56.280Z,1.52
2022-11-23T17:18:58.111Z,2.33
2022-11-23T17:22:00.081Z,1.98
2022-11-23T17:25:02.041Z,1.55
2022-11-23T17:28:06.135Z,1.92
2022-11-23T17:31:10.326Z,2.25
2022-11-23T17:34:13.319Z,1.55
2022-11-23T17:37:18.754Z,1.85
2022-11-23T17:40:22.251Z,1.70
2022-11-23T17:43:24.099Z,1.85
2022-11-23T17:46:27.973Z,2.20
2022-11-23T17:49:30.452Z,1.80
2022-11-23T17:52:33.166Z,1.88
2022-11-23T17:55:35.261Z,1.60
2022-11-23T17:58:39.662Z,1.48
2022-11-23T18:01:41.613Z,1.50
2022-11-23T18:04:43.577Z,1.70
2022-11-23T18:07:45.529Z,1.60
2022-11-23T18:10:47.486Z,2.55
2022-11-23T18:13:50.039Z,2.08
2022-11-23T18:16:51.911Z,1.80
2022-11-23T18:19:53.925Z,2.10
2022-11-23T18:22:55.857Z,1.73
2022-11-23T18:26:05.200Z,1.70
2022-11-23T18:29:07.449Z,1.40
2022-11-23T18:32:09.393Z,1.92
2022-11-23T18:35:11.349Z,1.50
2022-11-23T18:38:13.865Z,1.30
2022-11-23T18:41:18.364Z,1.50
2022-11-23T18:44:20.437Z,1.80
2022-11-23T18:47:22.332Z,1.73
2022-11-23T18:50:24.257Z,1.60
2022-11-23T18:53:26.133Z,1.58
2022-11-23T18:56:28.024Z,2.08
2022-11-23T18:59:58.642Z,1.90
2022-11-23T19:02:53.728Z,1.88
2022-11-23T19:06:01.670Z,1.92
2022-11-23T19:09:03.620Z,1.80
2022-11-23T19:12:07.908Z,1.98
2022-11-23T19:15:11.223Z,2.00
2022-11-23T19:18:13.203Z,1.95
2022-11-23T19:21:17.571Z,2.17
2022-11-23T19:24:19.560Z,2.30
2022-11-23T19:27:21.474Z,2.30
2022-11-23T19:30:23.464Z,2.85
2022-11-23T19:33:25.339Z,2.00
2022-11-23T19:36:29.243Z,2.90
2022-11-23T19:39:31.233Z,2.72
2022-11-23T19:42:35.255Z,2.60
2022-11-23T19:45:37.114Z,2.30
2022-11-23T19:48:39.491Z,2.75
2022-11-23T19:51:41.403Z,3.05
2022-11-23T19:54:43.329Z,2.72
2022-11-23T19:57:45.243Z,2.60
2022-11-23T20:00:47.200Z,2.53
2022-11-23T20:03:51.733Z,2.40
2022-11-23T20:06:53.627Z,2.85
2022-11-23T20:09:55.550Z,2.53
2022-11-23T20:12:57.455Z,2.60
2022-11-23T20:16:20.036Z,2.90
2022-11-23T20:19:22.113Z,2.20
2022-11-23T20:22:24.032Z,2.65
2022-11-23T20:25:28.189Z,2.70
2022-11-23T20:28:30.144Z,2.25
2022-11-23T20:31:33.025Z,2.10
2022-11-23T20:34:35.123Z,2.25
2022-11-23T20:37:37.246Z,2.10
2022-11-23T20:40:39.416Z,2.40
2022-11-23T20:43:41.726Z,2.45
2022-11-23T20:50:06.843Z,2.50
2022-11-23T20:53:08.715Z,2.85
2022-11-23T20:56:12.469Z,2.58
2022-11-23T20:59:14.625Z,2.20
2022-11-23T21:02:16.832Z,2.78
2022-11-23T21:05:19.781Z,2.40
2022-11-23T21:08:27.886Z,1.85
2022-11-23T21:11:32.223Z,2.08
2022-11-23T21:14:34.529Z,2.30
2022-11-23T21:17:36.518Z,1.98
2022-11-23T21:20:38.440Z,2.10
2022-11-23T21:23:40.368Z,2.17
2022-11-23T21:26:42.463Z,2.50
2022-11-23T21:29:44.390Z,2.42
2022-11-23T21:32:50.032Z,1.90
2022-11-23T21:35:51.999Z,2.40
2022-11-23T21:38:53.822Z,1.95
2022-11-23T21:41:55.802Z,2.42
2022-11-23T21:44:57.757Z,1.63
2022-11-23T21:48:01.936Z,1.75
2022-11-23T21:51:07.006Z,1.73
2022-11-23T21:54:09.435Z,2.67
2022-11-23T21:57:11.337Z,2.47
2022-11-23T22:00:13.527Z,1.95
2022-11-23T22:03:15.418Z,2.90
2022-11-23T22:06:20.702Z,2.42
2022-11-23T22:09:22.813Z,3.08
2022-11-23T22:12:24.778Z,2.30
2022-11-23T22:15:26.953Z,2.25
2022-11-23T22:18:29.951Z,3.05
2022-11-23T22:21:37.017Z,2.72
2022-11-23T22:24:38.945Z,2.58
2022-11-23T22:27:40.852Z,2.30
2022-11-23T22:30:42.737Z,3.05
2022-11-23T22:33:44.897Z,2.60
2022-11-23T22:36:49.567Z,2.30
2022-11-23T22:39:51.424Z,2.05
2022-11-23T22:42:53.296Z,1.85
2022-11-23T22:45:55.317Z,2.05
2022-11-23T22:48:57.367Z,2.40
2022-11-23T22:51:59.349Z,2.00
2022-11-23T22:55:01.361Z,2.28
2022-11-23T22:58:03.208Z,2.30
2022-11-23T23:01:07.901Z,2.25
2022-11-23T23:04:09.838Z,2.03
2022-11-23T23:07:11.691Z,2.00
2022-11-23T23:10:16.941Z,2.30
2022-11-23T23:13:20.210Z,2.10
2022-11-23T23:16:22.693Z,1.83
2022-11-23T23:19:24.756Z,1.95
2022-11-23T23:22:26.726Z,2.42
2022-11-23T23:25:28.603Z,2.10
2022-11-23T23:28:30.477Z,1.65
2022-11-23T23:31:32.389Z,1.92
2022-11-23T23:34:34.611Z,1.67
2022-11-23T23:37:37.084Z,1.92
2022-11-23T23:40:38.964Z,1.95
2022-11-23T23:43:41.505Z,1.60
2022-11-23T23:46:43.399Z,2.25
2022-11-23T23:49:45.298Z,2.08
2022-11-23T23:52:47.161Z,2.58
2022-11-23T23:55:59.693Z,2.17
2022-11-23T23:59:01.594Z,1.65
